createdAt,value
2022-07-25T00:00:00.634Z,100.00
2022-07-25T00:02:28.044Z,100.00
2022-07-25T00:04:54.922Z,100.00
2022-07-25T00:07:21.761Z,100.00
2022-07-25T00:09:48.631Z,100.00
2022-07-25T00:12:15.435Z,100.00
2022-07-25T00:14:42.352Z,100.00
2022-07-25T00:17:09.112Z,100.00
2022-07-25T00:19:35.922Z,100.00
2022-07-25T00:22:02.743Z,100.00
2022-07-25T00:24:29.816Z,100.00
2022-07-25T00:26:56.661Z,100.00
2022-07-25T00:29:24.272Z,100.00
2022-07-25T00:31:51.119Z,100.00
2022-07-25T00:34:17.986Z,100.00
2022-07-25T00:36:44.853Z,100.00
2022-07-25T00:39:11.681Z,100.00
2022-07-25T00:41:38.491Z,100.00
2022-07-25T00:44:06.198Z,100.00
2022-07-25T00:46:33.429Z,100.00
2022-07-25T00:49:01.216Z,100.00
2022-07-25T00:51:28.146Z,100.00
2022-07-25T00:53:57.536Z,100.00
2022-07-25T00:56:25.218Z,100.00
2022-07-25T00:58:52.100Z,100.00
2022-07-25T01:01:18.948Z,100.00
2022-07-25T01:03:45.853Z,100.00
2022-07-25T01:06:12.749Z,100.00
2022-07-25T01:08:40.042Z,100.00
2022-07-25T01:11:07.344Z,100.00
2022-07-25T01:13:34.786Z,100.00
2022-07-25T01:16:01.638Z,100.00
2022-07-25T01:18:28.531Z,100.00
2022-07-25T01:20:55.365Z,100.00
2022-07-25T01:23:22.256Z,100.00
2022-07-25T01:25:49.121Z,100.00
2022-07-25T01:28:15.907Z,100.00
2022-07-25T01:30:42.775Z,100.00
2022-07-25T01:33:09.653Z,100.00
2022-07-25T01:35:41.527Z,100.00
2022-07-25T01:38:10.262Z,100.00
2022-07-25T01:40:37.077Z,100.00
2022-07-25T01:43:04.431Z,100.00
2022-07-25T01:45:31.650Z,100.00
2022-07-25T01:47:58.494Z,100.00
2022-07-25T01:50:25.525Z,100.00
2022-07-25T01:52:52.493Z,100.00
2022-07-25T01:55:19.335Z,100.00
2022-07-25T01:57:49.438Z,100.00
2022-07-25T02:00:17.801Z,100.00
2022-07-25T02:02:45.438Z,100.00
2022-07-25T02:05:13.824Z,100.00
2022-07-25T02:07:40.631Z,100.00
2022-07-25T02:10:08.402Z,100.00
2022-07-25T02:12:35.332Z,100.00
2022-07-25T02:15:02.127Z,100.00
2022-07-25T02:17:29.070Z,100.00
2022-07-25T02:19:55.843Z,100.00
2022-07-25T02:22:22.583Z,100.00
2022-07-25T02:24:50.512Z,100.00
2022-07-25T02:27:17.525Z,100.00
2022-07-25T02:29:44.326Z,100.00
2022-07-25T02:32:11.031Z,100.00
2022-07-25T02:34:37.787Z,100.00
2022-07-25T02:37:04.660Z,100.00
2022-07-25T02:39:31.377Z,100.00
2022-07-25T02:41:58.171Z,100.00
2022-07-25T02:44:25.072Z,100.00
2022-07-25T02:46:51.774Z,100.00
2022-07-25T02:49:18.696Z,100.00
2022-07-25T02:51:45.530Z,100.00
2022-07-25T02:54:12.741Z,100.00
2022-07-25T02:56:39.708Z,100.00
2022-07-25T02:59:07.076Z,100.00
2022-07-25T03:01:33.920Z,100.00
2022-07-25T03:04:00.848Z,100.00
2022-07-25T03:06:27.789Z,100.00
2022-07-25T03:08:54.601Z,100.00
2022-07-25T03:11:21.383Z,100.00
2022-07-25T03:13:48.140Z,100.00
2022-07-25T03:16:15.595Z,100.00
2022-07-25T03:18:42.354Z,100.00
2022-07-25T03:21:09.258Z,100.00
2022-07-25T03:23:36.187Z,100.00
2022-07-25T03:26:02.987Z,100.00
2022-07-25T03:28:29.752Z,100.00
2022-07-25T03:30:56.543Z,100.00
2022-07-25T03:33:23.278Z,100.00
2022-07-25T03:35:50.042Z,100.00
2022-07-25T03:38:16.820Z,100.00
2022-07-25T03:40:43.569Z,100.00
2022-07-25T03:43:10.492Z,100.00
2022-07-25T03:45:37.361Z,100.00
2022-07-25T03:48:04.501Z,100.00
2022-07-25T03:50:31.300Z,100.00
2022-07-25T03:52:58.074Z,100.00
2022-07-25T03:55:24.931Z,100.00
2022-07-25T03:57:51.778Z,100.00
2022-07-25T04:00:18.620Z,100.00
2022-07-25T04:02:45.550Z,100.00
2022-07-25T04:05:12.363Z,100.00
2022-07-25T04:07:39.232Z,100.00
2022-07-25T04:10:08.291Z,100.00
2022-07-25T04:12:35.839Z,100.00
2022-07-25T04:15:02.771Z,100.00
2022-07-25T04:17:29.542Z,100.00
2022-07-25T04:19:57.414Z,100.00
2022-07-25T04:22:24.235Z,100.00
2022-07-25T04:24:50.941Z,100.00
2022-07-25T04:27:17.844Z,100.00
2022-07-25T04:29:44.665Z,100.00
2022-07-25T04:32:11.639Z,100.00
2022-07-25T04:34:38.516Z,100.00
2022-07-25T04:37:05.291Z,100.00
2022-07-25T04:39:32.064Z,100.00
2022-07-25T04:41:59.159Z,100.00
2022-07-25T04:44:25.912Z,100.00
2022-07-25T04:46:52.630Z,100.00
2022-07-25T04:49:19.540Z,100.00
2022-07-25T04:51:46.436Z,100.00
2022-07-25T04:54:13.242Z,100.00
2022-07-25T04:56:40.156Z,100.00
2022-07-25T04:59:07.299Z,100.00
2022-07-25T05:01:35.163Z,100.00
2022-07-25T05:04:02.232Z,100.00
2022-07-25T05:06:29.195Z,100.00
2022-07-25T05:08:56.172Z,100.00
2022-07-25T05:11:22.881Z,100.00
2022-07-25T05:13:49.670Z,100.00
2022-07-25T05:16:16.667Z,100.00
2022-07-25T05:18:43.560Z,100.00
2022-07-25T05:21:12.233Z,100.00
2022-07-25T05:23:42.062Z,100.00
2022-07-25T05:26:08.702Z,100.00
2022-07-25T05:28:35.801Z,99.77
2022-07-25T05:31:02.575Z,98.55
2022-07-25T05:33:29.601Z,99.76
2022-07-25T05:35:56.443Z,98.84
2022-07-25T05:38:23.289Z,97.33
2022-07-25T05:40:52.456Z,92.40
2022-07-25T05:43:19.873Z,87.83
2022-07-25T05:45:47.600Z,80.19
2022-07-25T05:48:16.085Z,81.18
2022-07-25T05:50:43.059Z,82.05
2022-07-25T05:53:09.805Z,76.12
2022-07-25T05:55:40.261Z,72.45
2022-07-25T05:58:09.597Z,72.01
2022-07-25T06:00:37.465Z,72.08
2022-07-25T06:03:04.591Z,70.88
2022-07-25T06:05:31.778Z,63.67
2022-07-25T06:07:58.587Z,66.40
2022-07-25T06:10:25.519Z,63.84
2022-07-25T06:12:52.421Z,67.44
2022-07-25T06:15:22.787Z,65.43
2022-07-25T06:17:53.632Z,64.11
2022-07-25T06:20:20.521Z,59.70
2022-07-25T06:22:47.294Z,62.81
2022-07-25T06:25:14.262Z,61.45
2022-07-25T06:27:41.634Z,59.89
2022-07-25T06:30:19.025Z,59.93
2022-07-25T06:32:47.352Z,55.21
2022-07-25T06:35:14.243Z,58.10
2022-07-25T06:37:41.065Z,56.45
2022-07-25T06:40:10.010Z,56.12
2022-07-25T06:42:45.439Z,56.78
2022-07-25T06:45:13.316Z,52.64
2022-07-25T06:47:41.852Z,49.29
2022-07-25T06:50:12.130Z,49.51
2022-07-25T06:52:40.063Z,48.74
2022-07-25T06:55:09.218Z,47.67
2022-07-25T06:57:37.154Z,46.94
2022-07-25T07:00:08.598Z,46.32
2022-07-25T07:02:59.825Z,46.84
2022-07-25T07:05:29.278Z,46.55
2022-07-25T07:07:56.182Z,45.85
2022-07-25T07:10:24.033Z,45.68
2022-07-25T07:12:51.643Z,44.00
2022-07-25T07:15:18.496Z,45.03
2022-07-25T07:17:45.231Z,43.56
2022-07-25T07:20:12.278Z,43.20
2022-07-25T07:22:48.025Z,42.79
2022-07-25T07:25:19.673Z,43.58
2022-07-25T07:27:47.804Z,41.80
2022-07-25T07:30:15.108Z,41.66
2022-07-25T07:32:43.163Z,40.92
2022-07-25T07:35:11.584Z,41.31
2022-07-25T07:37:43.220Z,41.13
2022-07-25T07:40:17.440Z,39.58
2022-07-25T07:42:47.922Z,39.31
2022-07-25T07:45:26.023Z,38.88
2022-07-25T07:47:54.507Z,38.79
2022-07-25T07:50:27.269Z,39.25
2022-07-25T07:52:55.809Z,38.47
2022-07-25T07:55:41.673Z,37.57
2022-07-25T07:58:08.554Z,38.15
2022-07-25T08:00:45.176Z,38.58
2022-07-25T08:03:12.210Z,37.64
2022-07-25T08:05:40.886Z,37.60
2022-07-25T08:08:09.874Z,36.97
2022-07-25T08:10:39.112Z,37.46
2022-07-25T08:13:23.502Z,36.72
2022-07-25T08:15:53.064Z,37.83
2022-07-25T08:18:21.714Z,36.73
2022-07-25T08:20:49.875Z,37.79
2022-07-25T08:23:17.638Z,37.59
2022-07-25T08:25:45.554Z,37.16
2022-07-25T08:30:39.832Z,36.35
2022-07-25T08:33:10.849Z,36.23
2022-07-25T08:35:37.964Z,36.60
2022-07-25T08:38:05.501Z,35.62
2022-07-25T08:40:35.413Z,35.54
2022-07-25T08:43:02.205Z,35.42
2022-07-25T08:45:29.420Z,35.64
2022-07-25T08:47:56.790Z,35.60
2022-07-25T08:50:29.102Z,35.96
2022-07-25T08:53:22.955Z,35.02
2022-07-25T08:55:46.904Z,36.09
2022-07-25T08:58:18.211Z,35.38
2022-07-25T09:00:45.631Z,34.67
2022-07-25T09:03:13.462Z,35.11
2022-07-25T09:05:40.752Z,34.56
2022-07-25T09:08:10.513Z,34.15
2022-07-25T09:10:39.367Z,33.96
2022-07-25T09:13:11.357Z,33.22
2022-07-25T09:15:40.096Z,33.65
2022-07-25T09:18:15.995Z,32.28
2022-07-25T09:20:47.785Z,33.47
2022-07-25T09:23:35.858Z,34.08
2022-07-25T09:26:14.361Z,33.64
2022-07-25T09:28:46.049Z,32.19
2022-07-25T09:31:14.199Z,33.33
2022-07-25T09:33:52.242Z,34.97
2022-07-25T09:36:19.094Z,34.88
2022-07-25T09:38:56.763Z,33.25
2022-07-25T09:41:34.411Z,33.04
2022-07-25T09:44:01.354Z,34.40
2022-07-25T09:46:32.211Z,32.73
2022-07-25T09:49:00.823Z,32.77
2022-07-25T09:51:29.493Z,33.57
2022-07-25T09:53:56.276Z,33.19
2022-07-25T09:56:23.080Z,32.64
2022-07-25T09:58:49.940Z,32.43
2022-07-25T10:01:25.563Z,32.39
2022-07-25T10:04:10.143Z,33.06
2022-07-25T10:06:56.340Z,32.45
2022-07-25T10:09:24.255Z,32.91
2022-07-25T10:12:11.567Z,32.88
2022-07-25T10:14:39.504Z,32.12
2022-07-25T10:17:07.444Z,31.82
2022-07-25T10:19:52.019Z,32.76
2022-07-25T10:22:39.876Z,32.10
2022-07-25T10:25:13.524Z,32.34
2022-07-25T10:27:50.731Z,32.11
2022-07-25T10:30:28.508Z,31.65
2022-07-25T10:33:11.838Z,31.95
2022-07-25T10:35:39.278Z,31.46
2022-07-25T10:38:06.806Z,30.66
2022-07-25T10:40:46.691Z,30.50
2022-07-25T10:43:13.402Z,30.31
2022-07-25T10:45:59.392Z,30.15
2022-07-25T10:48:26.181Z,30.83
2022-07-25T10:50:57.266Z,30.98
2022-07-25T10:53:39.152Z,30.89
2022-07-25T10:56:07.497Z,30.50
2022-07-25T10:58:56.713Z,29.89
2022-07-25T11:01:28.948Z,31.18
2022-07-25T11:04:04.546Z,30.21
2022-07-25T11:06:42.742Z,30.19
2022-07-25T11:09:26.657Z,29.05
2022-07-25T11:11:59.426Z,30.41
2022-07-25T11:14:31.497Z,30.04
2022-07-25T11:17:11.438Z,31.34
2022-07-25T11:19:38.518Z,30.63
2022-07-25T11:22:05.284Z,28.84
2022-07-25T11:24:44.624Z,29.05
2022-07-25T11:27:20.329Z,29.48
2022-07-25T11:29:47.415Z,28.69
2022-07-25T11:32:14.414Z,28.08
2022-07-25T11:34:48.531Z,28.55
2022-07-25T11:37:17.750Z,29.16
2022-07-25T11:39:46.320Z,30.88
2022-07-25T11:42:16.356Z,29.65
2022-07-25T11:44:47.964Z,29.73
2022-07-25T11:47:33.377Z,28.64
2022-07-25T11:50:04.169Z,29.07
2022-07-25T11:52:37.800Z,28.30
2022-07-25T11:55:10.120Z,28.65
2022-07-25T11:57:40.100Z,27.64
2022-07-25T12:00:25.032Z,27.87
2022-07-25T12:02:52.378Z,29.20
2022-07-25T12:05:22.307Z,28.76
2022-07-25T12:07:54.040Z,28.71
2022-07-25T12:10:32.469Z,28.42
2022-07-25T12:13:01.485Z,27.88
2022-07-25T12:15:41.305Z,27.02
2022-07-25T12:18:12.635Z,26.66
2022-07-25T12:20:43.244Z,28.68
2022-07-25T12:23:12.434Z,28.15
2022-07-25T12:25:44.124Z,26.85
2022-07-25T12:28:11.951Z,26.51
2022-07-25T12:30:40.211Z,27.94
2022-07-25T12:33:07.111Z,27.09
2022-07-25T12:35:34.302Z,28.49
2022-07-25T12:38:01.083Z,27.39
2022-07-25T12:40:28.108Z,27.76
2022-07-25T12:42:55.112Z,27.79
2022-07-25T12:45:23.251Z,27.37
2022-07-25T12:47:50.119Z,28.88
2022-07-25T12:50:21.125Z,27.54
2022-07-25T12:52:48.273Z,27.39
2022-07-25T12:55:17.816Z,26.24
2022-07-25T12:57:45.316Z,25.56
2022-07-25T13:00:15.361Z,25.56
2022-07-25T13:02:42.301Z,25.73
2022-07-25T13:05:10.475Z,25.86
2022-07-25T13:07:37.612Z,24.70
2022-07-25T13:10:06.860Z,26.59
2022-07-25T13:12:33.878Z,25.50
2022-07-25T13:15:00.699Z,25.43
2022-07-25T13:17:28.153Z,25.73
2022-07-25T13:19:56.132Z,26.75
2022-07-25T13:22:23.785Z,26.07
2022-07-25T13:24:51.021Z,27.50
2022-07-25T13:27:22.213Z,27.24
2022-07-25T13:29:54.940Z,27.65
2022-07-25T13:32:23.363Z,26.15
2022-07-25T13:34:51.473Z,25.81
2022-07-25T13:37:19.330Z,25.37
2022-07-25T13:39:46.174Z,26.23
2022-07-25T13:42:13.014Z,25.77
2022-07-25T13:44:39.742Z,24.85
2022-07-25T13:47:06.663Z,25.43
2022-07-25T13:49:33.556Z,25.34
2022-07-25T13:52:00.577Z,25.74
2022-07-25T13:54:27.438Z,25.41
2022-07-25T13:56:54.361Z,25.94
2022-07-25T13:59:21.993Z,27.12
2022-07-25T14:01:50.636Z,27.08
2022-07-25T14:04:20.794Z,27.01
2022-07-25T14:06:53.877Z,28.80
2022-07-25T14:09:21.641Z,28.83
2022-07-25T14:11:49.101Z,28.00
2022-07-25T14:14:16.063Z,26.88
2022-07-25T14:16:43.115Z,27.36
2022-07-25T14:19:10.438Z,27.92
2022-07-25T14:21:40.920Z,26.97
2022-07-25T14:24:08.200Z,26.40
2022-07-25T14:26:35.455Z,25.27
2022-07-25T14:29:02.745Z,27.10
2022-07-25T14:31:30.236Z,26.91
2022-07-25T14:33:57.150Z,25.66
2022-07-25T14:36:24.140Z,24.81
2022-07-25T14:38:51.116Z,24.90
2022-07-25T14:41:19.682Z,25.56
2022-07-25T14:43:46.538Z,26.38
2022-07-25T14:46:13.512Z,23.99
2022-07-25T14:48:40.462Z,23.63
2022-07-25T14:51:08.116Z,25.09
2022-07-25T14:53:35.635Z,24.29
2022-07-25T14:56:09.632Z,24.22
2022-07-25T14:58:38.356Z,25.03
2022-07-25T15:01:06.322Z,24.29
2022-07-25T15:03:33.350Z,23.30
2022-07-25T15:06:00.692Z,23.59
2022-07-25T15:08:29.249Z,24.49
2022-07-25T15:10:56.644Z,23.88
2022-07-25T15:13:32.185Z,23.57
2022-07-25T15:16:00.772Z,24.16
2022-07-25T15:18:28.296Z,23.89
2022-07-25T15:20:55.745Z,23.40
2022-07-25T15:23:25.491Z,22.73
2022-07-25T15:26:03.516Z,23.28
2022-07-25T15:28:36.209Z,23.66
2022-07-25T15:31:03.777Z,23.52
2022-07-25T15:33:30.880Z,24.20
2022-07-25T15:35:58.700Z,22.74
2022-07-25T15:38:25.850Z,22.48
2022-07-25T15:40:52.920Z,23.42
2022-07-25T15:43:19.969Z,24.27
2022-07-25T15:45:47.455Z,23.72
2022-07-25T15:48:14.704Z,23.85
2022-07-25T15:50:45.635Z,24.86
2022-07-25T15:53:18.177Z,24.70
2022-07-25T15:55:45.066Z,25.34
2022-07-25T15:58:12.551Z,24.57
2022-07-25T16:00:40.307Z,24.75
2022-07-25T16:03:08.157Z,24.63
2022-07-25T16:05:36.122Z,25.51
2022-07-25T16:08:03.247Z,25.44
2022-07-25T16:10:32.091Z,25.38
2022-07-25T16:12:59.954Z,25.83
2022-07-25T16:15:27.430Z,26.12
2022-07-25T16:18:01.872Z,26.50
2022-07-25T16:20:31.762Z,27.09
2022-07-25T16:22:59.669Z,27.05
2022-07-25T16:25:29.841Z,27.39
2022-07-25T16:27:57.671Z,28.15
2022-07-25T16:30:25.316Z,28.50
2022-07-25T16:32:52.344Z,27.85
2022-07-25T16:35:19.998Z,27.80
2022-07-25T16:37:46.933Z,29.04
2022-07-25T16:42:38.874Z,28.79
2022-07-25T16:45:06.391Z,28.31
2022-07-25T16:47:33.319Z,29.73
2022-07-25T16:50:00.500Z,30.15
2022-07-25T16:52:27.413Z,29.89
2022-07-25T16:54:54.374Z,29.64
2022-07-25T16:57:24.881Z,30.31
2022-07-25T17:02:19.181Z,30.44
2022-07-25T17:04:46.121Z,30.46
2022-07-25T17:07:13.091Z,31.58
2022-07-25T17:09:41.071Z,33.75
2022-07-25T17:12:08.136Z,35.34
2022-07-25T17:14:35.073Z,33.36
2022-07-25T17:17:02.164Z,35.63
2022-07-25T17:19:29.107Z,35.33
2022-07-25T17:21:55.981Z,37.13
2022-07-25T17:24:22.859Z,38.60
2022-07-25T17:26:49.759Z,40.72
2022-07-25T17:29:16.782Z,39.97
2022-07-25T17:34:08.931Z,42.84
2022-07-25T17:36:36.071Z,43.90
2022-07-25T17:39:03.039Z,44.50
2022-07-25T17:41:30.042Z,45.03
2022-07-25T17:43:56.965Z,43.94
2022-07-25T17:46:23.928Z,45.43
2022-07-25T17:48:50.946Z,45.61
2022-07-25T17:51:18.034Z,46.52
2022-07-25T17:53:44.986Z,46.51
2022-07-25T17:56:11.916Z,47.64
2022-07-25T17:58:38.913Z,47.21
2022-07-25T18:01:10.130Z,48.63
2022-07-25T18:03:38.010Z,50.09
2022-07-25T18:06:05.573Z,49.45
2022-07-25T18:10:59.036Z,52.47
2022-07-25T18:13:25.993Z,52.73
2022-07-25T18:15:53.776Z,54.05
2022-07-25T18:18:21.214Z,54.59
2022-07-25T18:20:48.237Z,55.07
2022-07-25T18:23:15.120Z,54.96
2022-07-25T18:25:44.766Z,57.42
2022-07-25T18:28:12.732Z,58.17
2022-07-25T18:30:39.844Z,63.12
2022-07-25T18:33:12.478Z,62.96
2022-07-25T18:39:10.712Z,59.41
2022-07-25T18:41:37.675Z,60.98
2022-07-25T18:44:05.057Z,59.69
2022-07-25T18:46:33.794Z,61.29
2022-07-25T18:49:01.921Z,61.58
2022-07-25T18:51:28.785Z,63.69
2022-07-25T18:53:55.684Z,66.31
2022-07-25T18:56:22.594Z,65.80
2022-07-25T18:58:49.912Z,65.29
2022-07-25T19:01:17.127Z,66.72
2022-07-25T19:03:44.160Z,66.90
2022-07-25T19:06:11.453Z,67.03
2022-07-25T19:08:38.775Z,66.63
2022-07-25T19:11:06.421Z,67.21
2022-07-25T19:13:51.160Z,69.02
2022-07-25T19:16:18.871Z,72.02
2022-07-25T19:18:45.900Z,74.04
2022-07-25T19:21:12.721Z,74.39
2022-07-25T19:23:39.813Z,72.23
2022-07-25T19:26:06.884Z,71.29
2022-07-25T19:28:35.864Z,71.12
2022-07-25T19:31:03.130Z,70.02
2022-07-25T19:33:35.657Z,72.99
2022-07-25T19:36:04.445Z,74.47
2022-07-25T19:38:31.930Z,77.87
2022-07-25T19:40:59.227Z,79.81
2022-07-25T19:43:26.171Z,79.71
2022-07-25T19:45:53.251Z,78.89
2022-07-25T19:48:24.046Z,80.65
2022-07-25T19:50:52.088Z,80.92
2022-07-25T19:53:19.121Z,81.84
2022-07-25T19:55:46.613Z,82.69
2022-07-25T19:58:13.636Z,82.13
2022-07-25T20:00:40.677Z,79.77
2022-07-25T20:03:07.769Z,79.48
2022-07-25T20:05:34.581Z,79.71
2022-07-25T20:08:01.461Z,83.13
2022-07-25T20:10:28.345Z,84.70
2022-07-25T20:12:59.561Z,83.64
2022-07-25T20:15:28.322Z,81.96
2022-07-25T20:17:57.083Z,81.68
2022-07-25T20:20:24.393Z,80.57
2022-07-25T20:22:52.187Z,82.71
2022-07-25T20:25:19.056Z,83.16
2022-07-25T20:27:45.941Z,81.96
2022-07-25T20:30:13.564Z,80.46
2022-07-25T20:32:40.910Z,80.15
2022-07-25T20:35:08.462Z,81.90
2022-07-25T20:37:35.702Z,82.97
2022-07-25T20:40:03.018Z,82.51
2022-07-25T20:42:29.754Z,82.08
2022-07-25T20:44:56.922Z,81.46
2022-07-25T20:47:23.868Z,81.89
2022-07-25T20:49:50.932Z,82.20
2022-07-25T20:52:17.825Z,82.90
2022-07-25T20:54:44.842Z,82.87
2022-07-25T20:57:11.836Z,84.05
2022-07-25T20:59:38.653Z,84.58
2022-07-25T21:02:05.815Z,84.68
2022-07-25T21:04:32.639Z,84.65
2022-07-25T21:06:59.401Z,83.18
2022-07-25T21:09:29.626Z,83.06
2022-07-25T21:11:59.662Z,82.75
2022-07-25T21:14:27.027Z,82.17
2022-07-25T21:16:54.207Z,86.84
2022-07-25T21:19:21.105Z,87.89
2022-07-25T21:21:48.670Z,87.72
2022-07-25T21:24:15.532Z,86.91
2022-07-25T21:26:42.404Z,86.59
2022-07-25T21:29:09.817Z,86.77
2022-07-25T21:31:37.929Z,86.91
2022-07-25T21:34:05.147Z,85.10
2022-07-25T21:36:32.043Z,87.85
2022-07-25T21:38:58.763Z,88.31
2022-07-25T21:41:25.551Z,87.52
2022-07-25T21:43:52.433Z,85.69
2022-07-25T21:46:19.334Z,88.04
2022-07-25T21:49:05.325Z,89.48
2022-07-25T21:51:40.341Z,88.50
2022-07-25T21:54:07.985Z,90.16
2022-07-25T21:56:34.752Z,91.49
2022-07-25T21:59:01.808Z,91.56
2022-07-25T22:01:28.743Z,89.99
2022-07-25T22:03:55.595Z,89.20
2022-07-25T22:06:22.478Z,88.55
2022-07-25T22:08:49.340Z,88.66
2022-07-25T22:11:42.892Z,89.93
2022-07-25T22:14:02.931Z,90.27
2022-07-25T22:16:29.806Z,90.62
2022-07-25T22:18:57.374Z,89.83
2022-07-25T22:21:24.425Z,89.03
2022-07-25T22:23:51.425Z,88.60
2022-07-25T22:26:20.276Z,88.44
2022-07-25T22:28:48.462Z,87.19
2022-07-25T22:31:15.659Z,87.21
2022-07-25T22:33:42.537Z,90.77
2022-07-25T22:36:09.681Z,89.71
2022-07-25T22:38:36.852Z,90.08
2022-07-25T22:41:03.693Z,89.63
2022-07-25T22:43:56.776Z,90.29
2022-07-25T22:46:17.382Z,88.97
2022-07-25T22:48:44.220Z,91.24
2022-07-25T22:51:12.049Z,92.58
2022-07-25T22:53:38.854Z,91.69
2022-07-25T22:56:06.033Z,90.33
2022-07-25T22:58:32.826Z,91.22
2022-07-25T23:03:36.277Z,92.43
2022-07-25T23:06:03.078Z,93.74
2022-07-25T23:08:30.104Z,92.89
2022-07-25T23:10:56.920Z,94.26
2022-07-25T23:13:24.153Z,94.47
2022-07-25T23:15:51.210Z,95.22
2022-07-25T23:18:18.940Z,94.10
2022-07-25T23:20:46.166Z,94.21
2022-07-25T23:23:13.812Z,93.82
2022-07-25T23:25:40.686Z,91.99
2022-07-25T23:28:07.494Z,93.07
2022-07-25T23:30:39.753Z,94.78
2022-07-25T23:33:08.164Z,95.41
2022-07-25T23:35:35.326Z,93.43
2022-07-25T23:38:02.347Z,96.54
2022-07-25T23:40:29.175Z,96.52
2022-07-25T23:42:56.066Z,95.20
2022-07-25T23:45:28.106Z,95.44
2022-07-25T23:47:56.677Z,94.08
2022-07-25T23:50:24.345Z,92.45
2022-07-25T23:52:51.640Z,92.37
2022-07-25T23:55:18.680Z,91.07
2022-07-25T23:57:45.562Z,89.02
